Time;durP1;ratioP1;P1;durP2;ratioP2;P2;SDS_P1;SDS_P2;PMS_P1;PMS_P2;Temp;Humidity;BMP_temperature;BMP_pressure;BME280_temperature;BME280_humidity;BME280_pressure;Samples;Min_cycle;Max_cycle;Signal;HPM_P1;HPM_P2
2021/10/18 00:03:54;;;;;;;17.10;11.57;;;;;;;7.00;100.00;96800.78;6445347;45;20090;-71
2021/10/18 00:08:56;;;;;;;17.95;11.25;;;;;;;7.23;100.00;96804.16;6462614;45;20143;-72
2021/10/18 00:13:59;;;;;;;18.13;11.25;;;;;;;7.49;100.00;96807.06;6465086;46;20179;-71
2021/10/18 00:19:03;;;;;;;18.17;11.10;;;;;;;7.31;100.00;96812.22;6462463;46;20200;-70
2021/10/18 00:24:05;;;;;;;16.88;10.60;;;;;;;7.46;100.00;96819.72;6438930;46;20091;-71
2021/10/18 00:29:08;;;;;;;16.17;10.18;;;;;;;7.39;100.00;96821.84;6435255;46;20098;-71
2021/10/18 00:34:11;;;;;;;27.25;11.45;;;;;;;7.21;100.00;96822.28;6433974;46;20542;-71
2021/10/18 00:39:13;;;;;;;18.52;10.15;;;;;;;7.03;100.00;96821.91;6409198;46;20541;-72
2021/10/18 00:44:16;;;;;;;24.35;10.98;;;;;;;7.27;100.00;96815.06;6420908;46;20106;-72
2021/10/18 00:49:18;;;;;;;21.30;10.30;;;;;;;7.31;100.00;96810.25;6433255;46;20104;-70
2021/10/18 00:54:20;;;;;;;20.77;12.23;;;;;;;7.18;100.00;96818.41;6433867;46;20093;-70
2021/10/18 00:59:23;;;;;;;20.00;11.02;;;;;;;7.24;100.00;96813.94;6434017;46;20100;-70
2021/10/18 01:04:26;;;;;;;23.13;11.23;;;;;;;7.10;100.00;96817.00;6433450;46;20112;-71
2021/10/18 01:09:28;;;;;;;16.55;10.38;;;;;;;7.41;100.00;96814.72;6433210;46;20186;-71
2021/10/18 01:14:30;;;;;;;16.15;9.48;;;;;;;7.67;100.00;96810.94;6433628;46;20090;-70
2021/10/18 01:19:33;;;;;;;15.95;10.00;;;;;;;7.53;100.00;96816.03;6433586;46;20152;-70
2021/10/18 01:24:36;;;;;;;14.77;9.90;;;;;;;7.46;100.00;96822.47;6432991;46;20108;-70
2021/10/18 01:29:39;;;;;;;13.73;9.93;;;;;;;7.52;100.00;96800.72;6432523;46;20658;-72
2021/10/18 01:34:41;;;;;;;15.65;10.05;;;;;;;7.62;100.00;96794.94;6433507;46;20090;-71
2021/10/18 01:39:43;;;;;;;15.10;9.23;;;;;;;7.71;100.00;96805.34;6432853;46;20091;-70
2021/10/18 01:44:46;;;;;;;17.45;9.93;;;;;;;7.80;100.00;96806.25;6435753;46;20116;-70
2021/10/18 01:49:48;;;;;;;16.20;9.77;;;;;;;7.62;100.00;96810.69;6435140;46;20515;-69
2021/10/18 01:54:51;;;;;;;15.85;8.85;;;;;;;7.82;100.00;96809.34;6433760;46;20094;-70
2021/10/18 01:59:53;;;;;;;11.82;9.27;;;;;;;7.76;100.00;96815.81;6433162;46;20095;-70
2021/10/18 02:04:55;;;;;;;15.18;8.93;;;;;;;7.86;100.00;96823.03;6432895;46;20707;-70
2021/10/18 02:09:59;;;;;;;13.32;8.82;;;;;;;7.72;100.00;96824.16;6432798;46;20086;-71
2021/10/18 02:15:02;;;;;;;18.00;10.32;;;;;;;7.60;100.00;96821.34;6432785;46;20622;-69
2021/10/18 02:20:08;;;;;;;14.35;8.90;;;;;;;7.75;100.00;96817.81;6432587;46;20082;-71
2021/10/18 02:25:12;;;;;;;13.70;8.52;;;;;;;7.82;100.00;96817.59;6432999;46;20095;-71
2021/10/18 02:30:14;;;;;;;16.02;9.50;;;;;;;7.82;100.00;96823.09;6433119;46;20098;-71
2021/10/18 02:35:17;;;;;;;13.43;9.88;;;;;;;7.70;100.00;96832.09;6432727;46;20551;-70
2021/10/18 02:40:19;;;;;;;14.07;10.00;;;;;;;7.87;100.00;96824.56;6432911;46;20104;-70
2021/10/18 02:45:21;;;;;;;12.02;9.40;;;;;;;7.99;100.00;96821.13;6434525;46;20126;-72
2021/10/18 02:50:24;;;;;;;15.80;8.82;;;;;;;7.88;100.00;96815.13;6434445;46;20091;-70
2021/10/18 02:55:26;;;;;;;14.77;9.88;;;;;;;7.86;100.00;96810.06;6435293;46;20623;-69
2021/10/18 03:00:29;;;;;;;13.32;9.63;;;;;;;7.95;100.00;96814.94;6434230;46;20609;-71
2021/10/18 03:05:31;;;;;;;12.77;7.97;;;;;;;8.11;100.00;96805.88;6434200;46;20086;-71
2021/10/18 03:10:34;;;;;;;12.80;8.65;;;;;;;8.15;100.00;96810.06;6439387;46;20095;-72
2021/10/18 03:15:37;;;;;;;16.00;9.00;;;;;;;8.10;100.00;96812.56;6438313;46;20095;-70
2021/10/18 03:20:40;;;;;;;15.18;9.13;;;;;;;8.18;100.00;96819.44;6434151;46;20095;-70
2021/10/18 03:25:42;;;;;;;15.90;8.77;;;;;;;8.04;100.00;96828.06;6442016;46;20069;-74
2021/10/18 03:30:44;;;;;;;15.45;9.45;;;;;;;8.06;100.00;96831.16;6469603;45;20112;-73
2021/10/18 03:35:49;;;;;;;21.42;10.73;;;;;;;7.83;100.00;96843.16;6439305;46;20091;-70
2021/10/18 03:40:51;;;;;;;19.67;9.05;;;;;;;7.74;100.00;96823.72;6434328;46;20520;-70
2021/10/18 03:45:53;;;;;;;17.00;9.88;;;;;;;7.87;100.00;96841.84;6434050;46;20130;-70
2021/10/18 03:50:56;;;;;;;18.02;9.82;;;;;;;7.98;100.00;96858.88;6434302;46;20130;-71
2021/10/18 03:55:59;;;;;;;16.60;9.95;;;;;;;7.88;100.00;96861.91;6433461;46;20538;-71
2021/10/18 04:01:05;;;;;;;20.40;11.35;;;;;;;8.01;100.00;96857.22;6444157;46;20081;-73
2021/10/18 04:06:07;;;;;;;17.55;10.63;;;;;;;8.09;100.00;96880.63;6452767;46;20187;-71
2021/10/18 04:11:09;;;;;;;18.25;10.63;;;;;;;7.83;100.00;96892.69;6434521;46;20078;-71
2021/10/18 04:16:12;;;;;;;20.15;10.57;;;;;;;7.79;100.00;96897.50;6433590;46;20706;-70
2021/10/18 04:21:14;;;;;;;17.20;9.95;;;;;;;7.95;100.00;96898.28;6433842;46;20085;-73
2021/10/18 04:26:17;;;;;;;17.35;9.65;;;;;;;7.99;100.00;96903.69;6433735;46;20108;-71
2021/10/18 04:31:19;;;;;;;15.68;9.48;;;;;;;8.06;100.00;96898.00;6434308;46;20090;-71
2021/10/18 04:36:22;;;;;;;21.10;10.63;;;;;;;7.63;100.00;96916.72;6433772;46;20649;-72
2021/10/18 04:41:24;;;;;;;17.52;9.45;;;;;;;7.77;100.00;96916.41;6433903;46;20095;-71
2021/10/18 04:46:27;;;;;;;14.65;8.43;;;;;;;7.94;100.00;96939.97;6420533;46;20099;-71
2021/10/18 04:51:29;;;;;;;18.85;9.55;;;;;;;8.01;100.00;96928.78;6433942;46;20086;-69
2021/10/18 04:56:32;;;;;;;16.70;8.90;;;;;;;7.96;100.00;96932.81;6433716;46;20090;-70
2021/10/18 05:01:34;;;;;;;18.23;9.65;;;;;;;7.78;100.00;96931.69;6434113;46;20086;-70
2021/10/18 05:06:37;;;;;;;17.15;9.23;;;;;;;7.64;100.00;96948.56;6433267;46;20090;-70
2021/10/18 05:11:40;;;;;;;13.60;8.40;;;;;;;7.77;100.00;96946.66;6433443;46;20699;-72
2021/10/18 05:16:43;;;;;;;14.20;8.85;;;;;;;7.85;100.00;96943.31;6433387;46;20098;-72
2021/10/18 05:21:45;;;;;;;15.02;8.50;;;;;;;7.88;100.00;96939.72;6450107;46;20127;-72
2021/10/18 05:26:48;;;;;;;16.27;7.85;;;;;;;7.93;100.00;96943.94;6468299;45;20095;-70
2021/10/18 05:31:50;;;;;;;13.88;8.80;;;;;;;7.90;100.00;96945.56;6466053;46;20125;-73
2021/10/18 05:36:52;;;;;;;14.93;8.77;;;;;;;7.77;100.00;96958.47;6466038;46;20523;-71
2021/10/18 05:41:55;;;;;;;15.05;8.80;;;;;;;7.97;100.00;96966.63;6467497;46;20137;-72
2021/10/18 05:46:57;;;;;;;16.20;9.43;;;;;;;7.87;100.00;96973.94;6436381;46;20694;-71
2021/10/18 05:52:01;;;;;;;19.38;8.98;;;;;;;7.97;100.00;96978.41;6432595;46;20108;-71
2021/10/18 05:57:04;;;;;;;15.52;8.60;;;;;;;7.82;100.00;96993.69;6433806;46;20095;-71
2021/10/18 06:02:06;;;;;;;12.93;8.82;;;;;;;7.88;100.00;97003.00;6434211;46;20100;-70
2021/10/18 06:07:09;;;;;;;13.43;8.43;;;;;;;8.04;100.00;97004.22;6434315;46;20100;-69
2021/10/18 06:12:11;;;;;;;13.27;8.30;;;;;;;8.16;100.00;97006.31;6434298;46;20095;-68
2021/10/18 06:17:14;;;;;;;17.55;8.40;;;;;;;8.12;100.00;97017.38;6434594;46;20196;-69
2021/10/18 06:22:16;;;;;;;13.10;7.53;;;;;;;8.27;100.00;97017.84;6434674;46;20653;-70
2021/10/18 06:27:21;;;;;;;16.27;9.32;;;;;;;8.41;99.81;97012.75;6435152;46;20304;-69
2021/10/18 06:32:23;;;;;;;17.60;9.15;;;;;;;8.27;100.00;97018.63;6434793;46;20086;-69
2021/10/18 06:37:26;;;;;;;18.80;10.27;;;;;;;8.52;99.79;97024.31;6421663;46;20899;-69
2021/10/18 06:42:29;;;;;;;19.73;9.90;;;;;;;8.55;99.19;97028.94;6434741;46;20099;-70
2021/10/18 06:47:31;;;;;;;18.30;10.02;;;;;;;8.61;98.78;97041.00;6434715;46;20174;-71
2021/10/18 06:52:37;;;;;;;20.27;9.73;;;;;;;8.79;98.13;97032.28;6434856;46;20106;-69
2021/10/18 06:57:40;;;;;;;18.55;10.52;;;;;;;8.65;98.78;97054.69;6435031;46;20095;-69
2021/10/18 07:02:42;;;;;;;21.58;10.07;;;;;;;9.08;96.20;97059.88;6421452;46;20090;-69
2021/10/18 07:07:44;;;;;;;19.00;10.40;;;;;;;9.26;95.14;97062.94;6434624;46;20215;-69
2021/10/18 07:12:47;;;;;;;22.83;9.23;;;;;;;9.26;94.85;97068.44;6434225;46;20091;-69
2021/10/18 07:17:50;;;;;;;15.32;9.20;;;;;;;9.45;93.67;97075.03;6433848;46;20528;-70
2021/10/18 07:22:56;;;;;;;15.82;9.45;;;;;;;9.37;93.98;97068.94;6434114;46;20090;-69
2021/10/18 07:27:58;;;;;;;16.75;9.93;;;;;;;9.37;93.63;97077.19;6434404;46;20090;-68
2021/10/18 07:33:01;;;;;;;15.05;9.30;;;;;;;9.33;94.82;97082.81;6434089;46;20634;-68
2021/10/18 07:38:05;;;;;;;20.48;11.35;;;;;;;8.99;94.99;97082.56;6434006;46;20546;-70
2021/10/18 07:43:10;;;;;;;18.98;9.02;;;;;;;9.13;95.50;97064.88;6434397;46;20547;-69
2021/10/18 07:48:12;;;;;;;14.57;8.13;;;;;;;9.34;94.23;97094.63;6433992;46;20130;-70
2021/10/18 07:53:15;;;;;;;15.95;9.73;;;;;;;9.54;93.62;97097.25;6443393;46;20087;-71
2021/10/18 07:58:19;;;;;;;17.25;9.88;;;;;;;9.56;94.03;97095.59;6467658;45;20193;-70
2021/10/18 08:03:22;;;;;;;15.20;9.63;;;;;;;9.56;93.31;97098.34;6436488;46;20653;-69
2021/10/18 08:08:30;;;;;;;15.10;8.80;;;;;;;9.80;93.02;97099.63;6432298;46;20081;-70
2021/10/18 08:13:32;;;;;;;19.45;9.90;;;;;;;9.97;92.33;97098.31;6431350;46;20550;-69
2021/10/18 08:18:35;;;;;;;18.00;10.40;;;;;;;9.71;93.15;97107.78;6430554;46;20100;-69
2021/10/18 08:23:38;;;;;;;14.68;9.27;;;;;;;10.03;91.94;97104.88;6435427;46;20099;-71
2021/10/18 08:28:40;;;;;;;15.88;9.15;;;;;;;10.14;90.14;97112.88;6424857;46;20091;-68
2021/10/18 08:33:46;;;;;;;17.98;10.80;;;;;;;9.55;91.17;97127.16;6434043;46;20095;-69
2021/10/18 08:38:49;;;;;;;17.10;9.57;;;;;;;9.51;93.29;97129.22;6433572;46;20104;-68
2021/10/18 08:48:58;;;;;;;16.42;9.63;;;;;;;9.88;90.89;97131.34;6433478;46;20094;-69
2021/10/18 08:54:01;;;;;;;19.25;11.15;;;;;;;10.10;90.62;97129.53;6433941;46;20099;-70
2021/10/18 08:59:24;;;;;;;18.55;11.13;;;;;;;9.85;92.02;97137.75;6426786;46;20134;-69
2021/10/18 09:04:30;;;;;;;20.15;11.68;;;;;;;9.75;92.44;97125.00;6439331;46;20122;-70
2021/10/18 09:09:51;;;;;;;21.58;11.98;;;;;;;9.30;94.69;97136.09;6460105;46;20121;-69
2021/10/18 09:14:59;;;;;;;24.80;13.52;;;;;;;9.56;93.95;97134.22;6437713;46;20107;-70
2021/10/18 09:20:23;;;;;;;20.88;11.80;;;;;;;10.22;91.60;97133.56;6419499;46;20095;-68
2021/10/18 09:25:41;;;;;;;20.52;11.02;;;;;;;10.63;88.78;97138.19;6432656;46;20129;-70
2021/10/18 09:30:45;;;;;;;18.15;11.05;;;;;;;10.88;88.14;97135.41;6433846;46;20247;-70
2021/10/18 09:35:48;;;;;;;22.77;12.23;;;;;;;10.84;87.51;97134.75;6432918;46;20109;-69
2021/10/18 09:40:54;;;;;;;20.00;12.15;;;;;;;10.58;87.27;97133.25;6433188;46;20662;-69
2021/10/18 09:46:00;;;;;;;17.42;10.32;;;;;;;10.97;87.24;97135.50;6433244;46;20082;-69
2021/10/18 10:56:19;;;;;;;25.80;15.38;;;;;;;11.28;86.18;97114.31;6444795;46;20115;-68
2021/10/18 11:01:57;;;;;;;24.40;13.40;;;;;;;11.45;87.41;97114.91;6421161;46;20156;-71
2021/10/18 11:07:06;;;;;;;23.85;13.82;;;;;;;11.72;85.74;97106.84;6431581;46;20091;-71
2021/10/18 11:12:33;;;;;;;27.15;14.82;;;;;;;11.44;85.02;97107.84;6432658;46;20678;-67
2021/10/18 11:17:44;;;;;;;27.08;15.05;;;;;;;11.37;84.78;97106.09;6433333;46;20109;-71
2021/10/18 11:22:55;;;;;;;27.17;15.48;;;;;;;11.47;85.56;97084.78;6431981;46;20840;-69
2021/10/18 11:28:04;;;;;;;31.02;17.80;;;;;;;11.01;87.63;97083.63;6433110;46;20107;-68
2021/10/18 11:33:13;;;;;;;25.27;14.82;;;;;;;11.66;86.87;97080.16;6432320;46;20081;-68
2021/10/18 11:38:17;;;;;;;25.13;13.85;;;;;;;12.24;84.28;97078.38;6433613;46;20107;-68
2021/10/18 11:43:26;;;;;;;28.55;15.65;;;;;;;12.06;83.13;97092.13;6434049;46;20096;-68
2021/10/18 11:48:30;;;;;;;29.27;13.95;;;;;;;12.46;80.82;97083.88;6421304;46;20649;-68
2021/10/18 11:53:45;;;;;;;29.85;15.70;;;;;;;12.66;80.09;97079.50;6434321;46;20090;-69
2021/10/18 11:58:49;;;;;;;24.13;14.38;;;;;;;12.89;78.25;97081.69;6421334;46;20090;-69
2021/10/18 12:03:58;;;;;;;26.33;15.18;;;;;;;12.58;80.91;97072.69;6396177;46;20207;-69
2021/10/18 12:09:04;;;;;;;30.27;16.05;;;;;;;12.63;82.07;97076.84;6420180;46;20091;-69
2021/10/18 12:14:07;;;;;;;31.38;15.40;;;;;;;13.38;77.70;97078.09;6420165;46;20086;-70
2021/10/18 12:19:11;;;;;;;31.52;16.98;;;;;;;12.88;77.67;97063.53;6433567;46;20098;-69
2021/10/18 12:24:15;;;;;;;25.10;14.63;;;;;;;13.51;77.37;97068.38;6419093;45;20099;-70
2021/10/18 12:29:20;;;;;;;27.20;15.82;;;;;;;13.83;75.91;97074.50;6453996;46;20094;-71
2021/10/18 12:34:22;;;;;;;32.80;15.90;;;;;;;13.88;74.35;97066.34;6413114;46;20098;-70
2021/10/18 12:39:45;;;;;;;23.95;14.95;;;;;;;13.66;76.09;97065.72;6419636;46;20086;-70
2021/10/18 12:44:50;;;;;;;29.35;16.67;;;;;;;13.62;75.08;97065.13;6418819;46;20294;-68
2021/10/18 12:50:08;;;;;;;25.75;15.18;;;;;;;13.89;74.89;97061.53;6419647;46;20081;-69
2021/10/18 12:55:21;;;;;;;27.27;16.45;;;;;;;12.84;77.17;97068.44;6434938;46;20140;-69
2021/10/18 13:00:33;;;;;;;30.10;15.57;;;;;;;12.48;79.77;97068.34;6438794;46;20320;-68
2021/10/18 13:05:45;;;;;;;29.65;16.95;;;;;;;12.52;80.23;97060.66;6433345;46;20085;-69
2021/10/18 13:10:52;;;;;;;26.23;13.80;;;;;;;13.35;78.30;97063.13;6432924;46;20086;-69
2021/10/18 13:15:55;;;;;;;22.35;13.73;;;;;;;14.00;73.79;97067.41;6418843;46;20309;-70
2021/10/18 13:21:00;;;;;;;23.10;14.68;;;;;;;12.98;77.99;97060.75;6419521;46;20110;-70
2021/10/18 13:26:02;;;;;;;23.50;14.30;;;;;;;13.32;76.68;97063.31;6406370;46;20178;-71
2021/10/18 13:31:05;;;;;;;25.58;15.40;;;;;;;13.40;77.79;97067.28;6419882;46;20094;-68
2021/10/18 13:36:10;;;;;;;24.08;14.60;;;;;;;13.13;76.99;97056.19;6419146;46;20147;-70
2021/10/18 13:41:13;;;;;;;24.92;14.40;;;;;;;14.01;75.25;97061.38;6434074;46;20377;-69
2021/10/18 13:46:15;;;;;;;23.08;13.90;;;;;;;13.47;74.59;97073.31;6433630;46;20305;-69
2021/10/18 13:51:19;;;;;;;22.83;13.52;;;;;;;14.28;73.19;97057.72;6416640;46;20086;-72
2021/10/18 13:56:21;;;;;;;24.63;13.68;;;;;;;14.65;70.39;97061.16;6432957;46;20117;-69
2021/10/18 14:01:24;;;;;;;20.92;13.25;;;;;;;14.24;73.80;97041.22;6406640;46;20629;-69
2021/10/18 14:06:27;;;;;;;22.40;14.40;;;;;;;13.55;77.08;97048.78;6417567;46;20089;-69
2021/10/18 14:11:30;;;;;;;20.85;14.20;;;;;;;13.66;74.89;97038.72;6433557;46;20095;-70
2021/10/18 14:16:34;;;;;;;25.10;15.55;;;;;;;13.23;77.15;97043.88;6448262;46;20077;-70
2021/10/18 14:21:37;;;;;;;18.75;13.43;;;;;;;13.14;79.58;97043.84;6415989;46;20281;-70
2021/10/18 14:26:39;;;;;;;27.05;14.93;;;;;;;12.63;80.59;97044.34;6419974;46;20284;-70
2021/10/18 14:31:42;;;;;;;23.08;14.73;;;;;;;12.01;83.29;97046.41;6419839;46;20767;-68
2021/10/18 14:36:44;;;;;;;22.73;14.13;;;;;;;12.23;83.51;97046.38;6418314;46;20232;-69
2021/10/18 14:41:47;;;;;;;26.25;14.50;;;;;;;11.65;85.28;97040.63;6405500;46;20158;-71
2021/10/18 14:46:49;;;;;;;21.08;12.88;;;;;;;11.96;86.00;97033.16;6415799;46;20288;-71
2021/10/18 14:51:52;;;;;;;19.48;12.85;;;;;;;12.06;85.36;97031.19;6406081;46;20276;-68
2021/10/18 14:56:55;;;;;;;21.98;13.75;;;;;;;11.71;86.40;97035.31;6417855;46;20106;-68
2021/10/18 15:01:58;;;;;;;21.42;13.95;;;;;;;11.41;88.18;97040.34;6420780;46;20529;-69
2021/10/18 15:07:02;;;;;;;23.90;14.15;;;;;;;11.46;88.19;97052.81;6405954;46;20103;-69
2021/10/18 15:12:05;;;;;;;21.00;13.00;;;;;;;11.42;88.31;97055.69;6404525;46;20129;-69
2021/10/18 15:17:08;;;;;;;19.80;13.45;;;;;;;11.33;88.88;97052.84;6407359;46;20645;-68
2021/10/18 15:22:14;;;;;;;24.05;14.45;;;;;;;11.24;90.10;97052.78;6412241;46;20755;-70
2021/10/18 15:27:17;;;;;;;20.98;13.38;;;;;;;11.26;90.51;97044.06;6417999;46;20365;-70
2021/10/18 15:32:20;;;;;;;22.15;13.38;;;;;;;11.14;91.71;97050.41;6407518;46;20100;-69
2021/10/18 15:37:22;;;;;;;25.90;14.93;;;;;;;10.87;93.03;97055.69;6431811;46;20691;-69
2021/10/18 15:42:24;;;;;;;22.58;13.65;;;;;;;10.74;93.84;97056.47;6406703;46;20099;-68
2021/10/18 15:47:27;;;;;;;21.55;13.15;;;;;;;10.80;93.32;97054.72;6418272;46;20090;-70
2021/10/18 15:52:31;;;;;;;20.95;12.43;;;;;;;10.82;93.62;97040.44;6433501;46;20516;-70
2021/10/18 15:57:35;;;;;;;19.13;12.05;;;;;;;10.63;94.11;97038.69;6420979;46;20502;-69
2021/10/18 16:02:37;;;;;;;24.73;14.30;;;;;;;10.37;95.67;97043.50;6420113;46;20314;-69
2021/10/18 16:07:41;;;;;;;25.95;12.82;;;;;;;10.24;96.12;97042.72;6408072;46;20174;-70
2021/10/18 16:12:44;;;;;;;22.30;13.23;;;;;;;10.06;96.55;97034.94;6408079;46;20196;-69
2021/10/18 16:17:47;;;;;;;20.85;11.88;;;;;;;9.94;97.12;97035.72;6407869;46;20104;-70
2021/10/18 16:22:49;;;;;;;21.52;12.90;;;;;;;9.76;98.15;97018.94;6419237;46;20200;-69
2021/10/18 16:27:52;;;;;;;24.63;13.40;;;;;;;9.64;99.32;97029.94;6420058;46;20202;-68
2021/10/18 16:32:54;;;;;;;20.70;12.48;;;;;;;9.47;99.65;97043.03;6433410;46;20143;-69
2021/10/18 16:37:56;;;;;;;21.60;13.52;;;;;;;9.54;100.00;97039.31;6404144;46;20082;-70
2021/10/18 16:42:59;;;;;;;26.60;16.17;;;;;;;9.48;100.00;97052.84;6419341;46;20107;-70
2021/10/18 16:48:02;;;;;;;24.45;14.18;;;;;;;9.72;100.00;97048.63;6419368;46;20706;-70
2021/10/18 16:53:04;;;;;;;23.98;14.18;;;;;;;9.87;100.00;97052.50;6416952;46;20631;-70
2021/10/18 16:58:07;;;;;;;25.23;14.60;;;;;;;9.95;100.00;97053.81;6414414;46;20244;-72
2021/10/18 17:03:09;;;;;;;31.83;16.50;;;;;;;9.99;100.00;97062.00;6450783;46;20091;-72
2021/10/18 17:08:12;;;;;;;30.15;16.83;;;;;;;9.87;100.00;97062.75;6435452;46;20094;-71
2021/10/18 17:13:15;;;;;;;31.60;17.50;;;;;;;9.77;100.00;97052.81;6420598;46;20192;-70
2021/10/18 17:18:17;;;;;;;30.77;14.98;;;;;;;9.99;100.00;97049.00;6406801;46;20198;-71
2021/10/18 17:23:20;;;;;;;30.40;15.63;;;;;;;9.70;100.00;97042.75;6419486;46;20599;-70
2021/10/18 17:28:23;;;;;;;28.90;15.40;;;;;;;9.90;100.00;97032.31;6427850;46;20095;-71
2021/10/18 17:33:26;;;;;;;25.83;14.90;;;;;;;9.87;100.00;97032.41;6403817;46;20235;-70
2021/10/18 17:38:29;;;;;;;27.40;15.18;;;;;;;9.81;100.00;97021.16;6427377;46;20345;-72
2021/10/18 17:43:32;;;;;;;37.35;13.20;;;;;;;9.91;100.00;97022.78;6430936;46;20090;-71
2021/10/18 17:48:36;;;;;;;23.33;12.85;;;;;;;9.89;100.00;97029.97;6406669;46;20648;-70
2021/10/18 17:53:40;;;;;;;20.55;12.57;;;;;;;10.00;100.00;97020.16;6419772;46;20194;-70
2021/10/18 17:58:42;;;;;;;19.00;12.15;;;;;;;9.97;100.00;97031.31;6429773;46;20099;-70
2021/10/18 18:03:45;;;;;;;21.10;12.98;;;;;;;9.93;100.00;97019.59;6427550;46;20194;-72
2021/10/18 18:08:47;;;;;;;19.75;11.93;;;;;;;9.96;100.00;97032.53;6406800;46;20661;-72
2021/10/18 18:13:50;;;;;;;24.33;13.15;;;;;;;10.00;100.00;97028.44;6430981;46;20090;-70
2021/10/18 18:18:52;;;;;;;18.58;11.13;;;;;;;9.92;100.00;97037.38;6406302;46;20103;-70
2021/10/18 18:23:55;;;;;;;21.10;11.88;;;;;;;9.92;100.00;97035.41;6426613;46;20622;-70
2021/10/18 18:28:58;;;;;;;22.33;12.15;;;;;;;9.60;100.00;97037.53;6413551;46;20293;-71
2021/10/18 18:34:00;;;;;;;20.33;11.88;;;;;;;9.72;100.00;97032.06;6424088;46;20253;-70
2021/10/18 18:39:03;;;;;;;23.67;11.20;;;;;;;9.51;100.00;97029.13;6421420;46;20528;-71
2021/10/18 18:44:05;;;;;;;21.20;10.52;;;;;;;9.61;100.00;97036.34;6421222;46;20699;-71
2021/10/18 18:49:08;;;;;;;21.80;12.63;;;;;;;9.30;100.00;97022.22;6405232;46;20130;-71
2021/10/18 18:54:11;;;;;;;34.90;13.40;;;;;;;9.16;100.00;97030.88;6431219;46;20135;-70
2021/10/18 18:59:14;;;;;;;16.25;11.32;;;;;;;9.37;100.00;97025.56;6408228;46;20393;-71
2021/10/18 19:04:16;;;;;;;23.20;10.23;;;;;;;9.21;100.00;97030.38;6405601;46;20090;-72
2021/10/18 19:09:20;;;;;;;26.48;11.10;;;;;;;9.11;100.00;97031.44;6410347;46;20695;-71
2021/10/18 19:14:22;;;;;;;30.13;11.30;;;;;;;8.93;100.00;97031.94;6434487;46;20162;-71
2021/10/18 19:19:27;;;;;;;21.67;11.73;;;;;;;9.03;100.00;97035.59;6414463;46;20095;-70
2021/10/18 19:24:29;;;;;;;17.55;10.35;;;;;;;8.96;100.00;97046.78;6433814;46;20090;-70
2021/10/18 19:29:32;;;;;;;25.65;9.93;;;;;;;8.74;100.00;97049.34;6408483;46;20091;-72
2021/10/18 19:34:37;;;;;;;32.28;9.73;;;;;;;8.58;100.00;97063.91;6421580;46;20116;-69
2021/10/18 19:39:40;;;;;;;28.25;11.15;;;;;;;8.61;100.00;97071.31;6434821;46;20174;-70
2021/10/18 19:44:43;;;;;;;18.98;8.45;;;;;;;8.82;100.00;97069.22;6421564;46;20226;-70
2021/10/18 19:49:45;;;;;;;17.65;9.23;;;;;;;8.78;100.00;97076.78;6422263;46;20240;-70
2021/10/18 19:54:48;;;;;;;23.92;9.85;;;;;;;8.60;100.00;97085.50;6409391;46;20293;-70
2021/10/18 19:59:51;;;;;;;17.05;9.35;;;;;;;8.56;100.00;97085.59;6409528;46;20095;-69
2021/10/18 20:04:53;;;;;;;24.88;10.38;;;;;;;8.83;100.00;97085.31;6421308;46;20187;-70
2021/10/18 20:09:56;;;;;;;18.52;11.65;;;;;;;8.82;100.00;97078.25;6421794;46;20102;-70
2021/10/18 20:14:58;;;;;;;17.13;9.55;;;;;;;8.89;100.00;97080.09;6421595;46;20103;-71
2021/10/18 20:20:02;;;;;;;13.55;7.97;;;;;;;8.83;100.00;97092.81;6437387;46;20104;-70
2021/10/18 20:25:05;;;;;;;11.75;8.88;;;;;;;8.84;100.00;97103.44;6437348;46;20177;-70
2021/10/18 20:30:08;;;;;;;14.27;8.95;;;;;;;8.73;100.00;97078.09;6421234;46;20104;-70
2021/10/18 20:35:13;;;;;;;11.38;8.15;;;;;;;8.79;100.00;97048.03;6406729;46;20098;-70
2021/10/18 20:40:16;;;;;;;6.78;6.00;;;;;;;8.58;100.00;97049.34;6419776;46;20099;-70
2021/10/18 20:45:19;;;;;;;7.35;6.35;;;;;;;8.47;100.00;97055.13;6433017;46;20604;-71
2021/10/18 20:50:22;;;;;;;10.52;6.43;;;;;;;8.54;100.00;97063.22;6433242;46;20082;-69
2021/10/18 20:55:24;;;;;;;17.23;5.93;;;;;;;8.33;99.22;97071.97;6404578;46;20444;-71
2021/10/18 21:00:28;;;;;;;6.22;5.35;;;;;;;8.06;100.00;97079.66;6404598;46;20191;-68
2021/10/18 21:05:30;;;;;;;12.98;6.05;;;;;;;8.09;100.00;97091.78;6418462;46;20104;-71
2021/10/18 21:10:34;;;;;;;14.95;6.60;;;;;;;7.86;100.00;97092.69;6418876;46;20523;-68
2021/10/18 21:15:36;;;;;;;11.88;6.55;;;;;;;7.78;100.00;97096.75;6406278;46;20140;-68
2021/10/18 21:20:39;;;;;;;11.50;5.80;;;;;;;7.83;100.00;97085.25;6418397;46;20090;-71
2021/10/18 21:25:42;;;;;;;7.10;5.60;;;;;;;7.89;100.00;97069.81;6418232;46;20702;-69
2021/10/18 21:30:44;;;;;;;6.22;5.40;;;;;;;7.87;100.00;97086.75;6420465;46;20086;-71
2021/10/18 21:35:47;;;;;;;5.53;5.00;;;;;;;7.89;100.00;97075.31;6450274;46;20089;-70
2021/10/18 21:40:53;;;;;;;7.35;5.38;;;;;;;7.87;100.00;97075.72;6420179;46;20524;-71
2021/10/18 21:45:57;;;;;;;5.82;5.22;;;;;;;7.86;100.00;97065.94;6421964;46;20112;-71
2021/10/18 21:51:00;;;;;;;10.32;5.63;;;;;;;8.01;100.00;97054.59;6423422;46;20107;-71
2021/10/18 21:56:03;;;;;;;6.22;5.43;;;;;;;7.85;100.00;97067.13;6410883;46;20690;-70
2021/10/18 22:01:11;;;;;;;6.93;5.57;;;;;;;7.89;100.00;97070.56;6436213;46;20527;-70
2021/10/18 22:06:14;;;;;;;8.03;6.17;;;;;;;7.92;100.00;97085.47;6422239;46;20082;-70
2021/10/18 22:11:16;;;;;;;7.82;5.35;;;;;;;7.88;100.00;97079.28;6435104;46;20094;-70
2021/10/18 22:16:19;;;;;;;7.32;5.63;;;;;;;7.92;100.00;97074.47;6434203;46;20135;-71
2021/10/18 22:21:22;;;;;;;8.48;6.20;;;;;;;7.76;100.00;97082.66;6422117;46;20239;-71
2021/10/18 22:26:24;;;;;;;8.38;5.70;;;;;;;7.66;100.00;97086.44;6421352;46;20111;-70
2021/10/18 22:31:27;;;;;;;10.30;6.15;;;;;;;7.52;100.00;97078.47;6419864;46;20099;-70
2021/10/18 22:36:30;;;;;;;12.45;5.80;;;;;;;7.47;100.00;97087.97;6408684;46;20081;-71
2021/10/18 22:41:33;;;;;;;13.00;9.18;;;;;;;7.35;100.00;97098.84;6419195;46;20240;-70
2021/10/18 22:46:36;;;;;;;9.57;7.40;;;;;;;7.27;100.00;97100.16;6419131;46;20086;-70
2021/10/18 22:51:38;;;;;;;8.68;7.07;;;;;;;7.46;100.00;97102.16;6433546;46;20208;-70
2021/10/18 22:56:41;;;;;;;7.85;6.88;;;;;;;7.35;100.00;97096.09;6425877;46;20228;-71
2021/10/18 23:01:43;;;;;;;7.75;6.22;;;;;;;7.52;100.00;97101.25;6422043;46;20222;-71
2021/10/18 23:06:46;;;;;;;8.07;6.60;;;;;;;7.74;100.00;97101.56;6411349;46;20578;-70
2021/10/18 23:11:49;;;;;;;6.93;5.82;;;;;;;7.51;100.00;97115.41;6420821;46;20078;-71
2021/10/18 23:16:51;;;;;;;7.30;6.30;;;;;;;7.59;100.00;97111.31;6407013;46;20612;-70
2021/10/18 23:21:54;;;;;;;10.57;6.03;;;;;;;7.42;100.00;97129.72;6420642;46;20151;-70
2021/10/18 23:26:56;;;;;;;7.72;6.68;;;;;;;7.18;100.00;97139.97;6420837;46;20121;-71
2021/10/18 23:31:58;;;;;;;7.00;5.85;;;;;;;7.27;100.00;97127.66;6434075;46;20081;-71
2021/10/18 23:37:01;;;;;;;8.50;6.07;;;;;;;7.41;100.00;97127.38;6421812;46;20103;-70
2021/10/18 23:42:04;;;;;;;7.65;4.95;;;;;;;7.28;100.00;97113.50;6421162;46;20095;-70
2021/10/18 23:47:07;;;;;;;6.28;5.65;;;;;;;7.33;100.00;97115.00;6409167;46;20112;-71
2021/10/18 23:52:10;;;;;;;6.85;4.65;;;;;;;7.26;100.00;97101.38;6409570;46;20111;-69
2021/10/18 23:57:12;;;;;;;5.65;4.72;;;;;;;7.20;100.00;97109.31;6421983;46;20547;-71
